createdAt,value
2018-04-01T00:00:50.273Z,3.33
2018-04-01T00:03:18.006Z,3.20
2018-04-01T00:05:45.742Z,3.13
2018-04-01T00:08:13.516Z,2.80
2018-04-01T00:10:41.240Z,2.57
2018-04-01T00:13:09.029Z,2.80
2018-04-01T00:15:36.744Z,2.90
2018-04-01T00:18:04.480Z,2.73
2018-04-01T00:20:32.226Z,2.90
2018-04-01T00:22:59.981Z,2.80
2018-04-01T00:25:27.747Z,2.97
2018-04-01T00:27:55.533Z,2.83
2018-04-01T00:30:23.270Z,2.73
2018-04-01T00:32:51.020Z,2.93
2018-04-01T00:35:19.152Z,3.07
2018-04-01T00:37:46.923Z,3.30
2018-04-01T00:40:15.029Z,3.20
2018-04-01T00:42:42.920Z,3.70
2018-04-01T00:45:10.620Z,3.40
2018-04-01T00:47:38.399Z,3.20
2018-04-01T00:50:06.147Z,3.70
2018-04-01T00:52:34.097Z,3.67
2018-04-01T00:55:05.112Z,3.70
2018-04-01T00:57:32.852Z,3.90
2018-04-01T01:00:00.619Z,3.20
2018-04-01T01:02:33.967Z,3.33
2018-04-01T01:05:04.768Z,3.80
2018-04-01T01:07:32.490Z,3.27
2018-04-01T01:10:00.311Z,3.20
2018-04-01T01:12:31.101Z,3.43
2018-04-01T01:14:58.852Z,2.60
2018-04-01T01:17:26.619Z,2.93
2018-04-01T01:19:54.380Z,2.70
2018-04-01T01:22:22.126Z,2.70
2018-04-01T01:24:50.116Z,2.67
2018-04-01T01:27:17.866Z,2.80
2018-04-01T01:29:45.741Z,2.97
2018-04-01T01:32:13.501Z,2.90
2018-04-01T01:34:41.230Z,3.03
2018-04-01T01:37:09.128Z,3.03
2018-04-01T01:39:36.893Z,3.10
2018-04-01T01:42:05.010Z,2.90
2018-04-01T01:44:32.749Z,3.20
2018-04-01T01:47:00.488Z,3.30
2018-04-01T01:49:29.003Z,2.97
2018-04-01T01:51:57.062Z,3.07
2018-04-01T01:54:25.075Z,2.80
2018-04-01T01:56:52.823Z,2.70
2018-04-01T01:59:20.765Z,3.00
2018-04-01T02:01:49.153Z,2.83
2018-04-01T02:04:17.147Z,2.90
2018-04-01T02:06:44.906Z,2.90
2018-04-01T02:09:12.633Z,2.70
2018-04-01T02:11:40.387Z,3.10
2018-04-01T02:14:08.180Z,3.20
2018-04-01T02:16:35.913Z,3.00
2018-04-01T02:19:04.045Z,3.37
2018-04-01T02:21:31.792Z,3.10
2018-04-01T02:23:59.525Z,3.03
2018-04-01T02:26:27.272Z,3.30
2018-04-01T02:28:54.985Z,3.57
2018-04-01T02:31:22.990Z,3.70
2018-04-01T02:33:50.675Z,3.90
2018-04-01T02:36:18.446Z,4.00
2018-04-01T02:38:46.208Z,4.03
2018-04-01T02:41:13.929Z,3.97
2018-04-01T02:43:41.682Z,3.70
2018-04-01T02:46:09.408Z,3.70
2018-04-01T02:48:37.155Z,4.10
2018-04-01T02:51:04.879Z,4.00
2018-04-01T02:53:32.634Z,3.90
2018-04-01T02:56:00.361Z,4.30
2018-04-01T02:58:28.108Z,4.00
2018-04-01T03:00:55.860Z,4.00
2018-04-01T03:03:23.625Z,4.20
2018-04-01T03:05:51.565Z,4.10
2018-04-01T03:08:19.296Z,4.10
2018-04-01T03:10:47.028Z,4.30
2018-04-01T03:13:14.754Z,4.00
2018-04-01T03:15:42.515Z,287.23
2018-04-01T03:18:10.271Z,71.77
2018-04-01T03:20:38.026Z,6.13
2018-04-01T03:23:05.782Z,4.60
2018-04-01T03:25:33.970Z,4.70
2018-04-01T03:28:01.698Z,4.30
2018-04-01T03:30:29.423Z,4.33
2018-04-01T03:32:57.174Z,4.67
2018-04-01T03:35:24.911Z,5.17
2018-04-01T03:37:52.848Z,4.47
2018-04-01T03:40:20.574Z,4.40
2018-04-01T03:42:48.312Z,4.67
2018-04-01T03:45:16.049Z,4.70
2018-04-01T03:47:43.802Z,5.17
2018-04-01T03:50:11.525Z,5.50
2018-04-01T03:52:39.290Z,5.37
2018-04-01T03:55:06.988Z,6.10
2018-04-01T03:57:34.732Z,6.47
2018-04-01T04:00:05.065Z,6.37
2018-04-01T04:02:32.801Z,5.97
2018-04-01T04:05:00.572Z,6.63
2018-04-01T04:07:33.833Z,6.63
2018-04-01T04:10:05.214Z,7.40
2018-04-01T04:12:32.935Z,7.17
2018-04-01T04:17:33.529Z,211.00
2018-04-01T04:20:04.849Z,122.80
2018-04-01T04:22:32.565Z,19.90
2018-04-01T04:25:00.328Z,8.70
2018-04-01T04:27:33.473Z,8.03
2018-04-01T04:30:06.008Z,7.57
2018-04-01T04:32:33.705Z,8.43
2018-04-01T04:35:04.561Z,8.87
2018-04-01T04:37:32.291Z,8.63
2018-04-01T04:40:00.023Z,9.73
2018-04-01T04:42:30.985Z,9.33
2018-04-01T04:44:58.907Z,9.20
2018-04-01T04:47:26.643Z,9.23
2018-04-01T04:49:54.401Z,8.93
2018-04-01T04:52:22.221Z,9.83
2018-04-01T04:54:49.966Z,9.60
2018-04-01T04:57:17.707Z,8.80
2018-04-01T04:59:45.744Z,8.53
2018-04-01T05:02:13.517Z,9.47
2018-04-01T05:04:41.236Z,9.40
2018-04-01T05:07:08.961Z,8.53
2018-04-01T05:09:36.717Z,8.10
2018-04-01T05:12:04.475Z,8.53
2018-04-01T05:14:32.561Z,8.33
2018-04-01T05:17:00.584Z,8.53
2018-04-01T05:19:28.320Z,8.40
2018-04-01T05:21:56.073Z,7.77
2018-04-01T05:24:23.809Z,7.67
2018-04-01T05:26:55.662Z,8.60
2018-04-01T05:29:23.639Z,8.33
2018-04-01T05:31:51.404Z,7.80
2018-04-01T05:34:19.179Z,7.67
2018-04-01T05:36:46.901Z,7.93
2018-04-01T05:39:14.650Z,7.57
2018-04-01T05:41:42.375Z,6.47
2018-04-01T05:44:10.163Z,7.20
2018-04-01T05:46:37.895Z,7.00
2018-04-01T05:49:05.631Z,7.40
2018-04-01T05:51:33.621Z,6.93
2018-04-01T05:54:01.390Z,7.27
2018-04-01T05:56:29.109Z,6.80
2018-04-01T05:58:56.874Z,7.13
2018-04-01T06:01:24.634Z,6.63
2018-04-01T06:03:52.394Z,6.70
2018-04-01T06:06:20.152Z,6.30
2018-04-01T06:08:47.940Z,7.10
2018-04-01T06:11:15.676Z,7.37
2018-04-01T06:13:43.596Z,7.10
2018-04-01T06:16:11.348Z,7.03
2018-04-01T06:18:39.097Z,7.80
2018-04-01T06:21:06.820Z,7.00
2018-04-01T06:23:34.745Z,6.87
2018-04-01T06:26:02.504Z,7.60
2018-04-01T06:28:30.240Z,7.70
2018-04-01T06:30:59.500Z,7.70
2018-04-01T06:33:27.387Z,7.33
2018-04-01T06:35:55.119Z,6.83
2018-04-01T06:38:22.852Z,7.20
2018-04-01T06:40:50.598Z,6.80
2018-04-01T06:43:18.330Z,7.57
2018-04-01T06:45:46.076Z,7.70
2018-04-01T06:48:13.817Z,7.90
2018-04-01T06:50:41.737Z,8.30
2018-04-01T06:53:09.825Z,7.63
2018-04-01T06:55:37.566Z,8.43
2018-04-01T06:58:05.300Z,9.03
2018-04-01T07:00:33.083Z,9.43
2018-04-01T07:03:00.852Z,10.30
2018-04-01T07:05:28.601Z,17.40
2018-04-01T07:07:56.339Z,46.00
2018-04-01T07:10:24.485Z,12.00
2018-04-01T07:12:52.843Z,12.33
2018-04-01T07:15:20.736Z,12.13
2018-04-01T07:17:48.490Z,12.87
2018-04-01T07:20:16.226Z,14.33
2018-04-01T07:22:43.999Z,14.37
2018-04-01T07:25:11.729Z,14.27
2018-04-01T07:27:39.487Z,14.47
2018-04-01T07:30:07.371Z,15.10
2018-04-01T07:32:35.107Z,15.43
2018-04-01T07:35:05.841Z,16.80
2018-04-01T07:37:33.584Z,15.63
2018-04-01T07:40:06.153Z,11.63
2018-04-01T07:42:34.385Z,9.87
2018-04-01T07:45:05.161Z,10.77
2018-04-01T07:47:32.920Z,10.03
2018-04-01T07:50:00.668Z,11.60
2018-04-01T07:52:33.734Z,12.27
2018-04-01T07:55:05.666Z,11.70
2018-04-01T07:57:34.049Z,12.87
2018-04-01T08:00:05.206Z,20.23
2018-04-01T08:02:32.946Z,25.40
2018-04-01T08:05:00.687Z,14.67
2018-04-01T08:07:31.908Z,14.03
2018-04-01T08:09:59.649Z,13.90
2018-04-01T08:12:27.406Z,13.70
2018-04-01T08:14:55.194Z,14.20
2018-04-01T08:17:22.931Z,13.83
2018-04-01T08:19:50.812Z,11.97
2018-04-01T08:22:18.570Z,12.57
2018-04-01T08:24:46.417Z,11.47
2018-04-01T08:27:14.172Z,11.20
2018-04-01T08:29:41.954Z,11.07
2018-04-01T08:32:09.712Z,10.57
2018-04-01T08:34:37.451Z,11.30
2018-04-01T08:37:05.220Z,10.87
2018-04-01T08:39:32.955Z,10.47
2018-04-01T08:42:00.724Z,10.93
2018-04-01T08:44:28.533Z,33.73
2018-04-01T08:46:56.302Z,18.67
2018-04-01T08:49:24.040Z,12.67
2018-04-01T08:51:51.809Z,12.20
2018-04-01T08:54:19.710Z,12.03
2018-04-01T08:56:47.465Z,12.50
2018-04-01T08:59:15.434Z,12.97
2018-04-01T09:01:43.148Z,12.63
2018-04-01T09:04:10.914Z,12.83
2018-04-01T09:06:38.945Z,12.93
2018-04-01T09:09:07.221Z,13.53
2018-04-01T09:11:34.957Z,13.60
2018-04-01T09:14:02.727Z,13.27
2018-04-01T09:16:30.724Z,14.80
2018-04-01T09:18:58.486Z,13.90
2018-04-01T09:21:26.220Z,14.57
2018-04-01T09:23:53.974Z,13.57
2018-04-01T09:26:21.725Z,14.13
2018-04-01T09:28:49.576Z,13.37
2018-04-01T09:31:17.330Z,14.67
2018-04-01T09:33:45.258Z,14.97
2018-04-01T09:36:13.002Z,14.90
2018-04-01T09:38:40.779Z,14.73
2018-04-01T09:41:08.718Z,14.10
2018-04-01T09:43:36.460Z,14.90
2018-04-01T09:46:04.233Z,15.10
2018-04-01T09:48:31.973Z,16.10
2018-04-01T09:50:59.730Z,15.43
2018-04-01T09:53:27.488Z,16.60
2018-04-01T09:55:55.259Z,14.77
2018-04-01T09:58:23.205Z,16.53
2018-04-01T10:00:59.694Z,16.10
2018-04-01T10:03:28.002Z,15.47
2018-04-01T10:05:56.326Z,16.80
2018-04-01T10:08:24.925Z,17.13
2018-04-01T10:10:53.229Z,16.00
2018-04-01T10:13:21.545Z,16.30
2018-04-01T10:15:49.842Z,16.80
2018-04-01T10:18:18.114Z,17.17
2018-04-01T10:20:46.436Z,17.33
2018-04-01T10:23:15.001Z,17.77
2018-04-01T10:25:43.304Z,18.07
2018-04-01T10:28:11.597Z,19.23
2018-04-01T10:30:40.165Z,19.67
2018-04-01T10:33:08.456Z,23.30
2018-04-01T10:35:36.789Z,19.83
2018-04-01T10:38:05.103Z,20.80
2018-04-01T10:40:33.417Z,20.23
2018-04-01T10:43:01.730Z,21.37
2018-04-01T10:45:30.010Z,21.20
2018-04-01T10:47:58.454Z,20.90
2018-04-01T10:50:26.749Z,19.30
2018-04-01T10:52:55.045Z,19.30
2018-04-01T10:55:23.167Z,19.77
2018-04-01T10:57:51.081Z,21.03
2018-04-01T11:00:20.041Z,21.57
2018-04-01T11:02:48.485Z,20.57
2018-04-01T11:05:16.247Z,21.10
2018-04-01T11:07:44.012Z,20.37
2018-04-01T11:10:11.749Z,20.00
2018-04-01T11:12:39.513Z,20.77
2018-04-01T11:15:07.273Z,19.80
2018-04-01T11:17:35.072Z,20.10
2018-04-01T11:20:06.261Z,19.90
2018-04-01T11:22:34.000Z,19.60
2018-04-01T11:25:06.705Z,19.03
2018-04-01T11:27:34.462Z,20.57
2018-04-01T11:30:05.087Z,20.83
2018-04-01T11:32:32.844Z,19.17
2018-04-01T11:35:05.412Z,19.57
2018-04-01T11:37:33.135Z,19.67
2018-04-01T11:40:04.017Z,19.63
2018-04-01T11:42:31.780Z,21.50
2018-04-01T11:44:59.573Z,21.17
2018-04-01T11:47:30.328Z,22.53
2018-04-01T11:49:58.068Z,22.50
2018-04-01T11:52:26.148Z,23.77
2018-04-01T11:54:53.901Z,23.27
2018-04-01T11:57:21.652Z,24.20
2018-04-01T11:59:49.405Z,24.63
2018-04-01T12:02:17.181Z,25.83
2018-04-01T12:04:44.928Z,26.07
2018-04-01T12:07:12.733Z,25.87
2018-04-01T12:09:40.470Z,25.90
2018-04-01T12:12:08.241Z,26.43
2018-04-01T12:14:35.990Z,24.97
2018-04-01T12:17:03.768Z,27.13
2018-04-01T12:19:31.522Z,26.33
2018-04-01T12:21:59.273Z,78.60
2018-04-01T12:24:27.009Z,24.83
2018-04-01T12:26:54.809Z,23.33
2018-04-01T12:29:22.642Z,20.50
2018-04-01T12:31:50.377Z,20.57
2018-04-01T12:34:18.418Z,19.73
2018-04-01T12:36:46.184Z,21.50
2018-04-01T12:39:14.516Z,20.70
2018-04-01T12:41:42.256Z,21.57
2018-04-01T12:44:10.000Z,20.93
2018-04-01T12:46:37.758Z,23.13
2018-04-01T12:49:05.529Z,25.43
2018-04-01T12:51:33.344Z,26.37
2018-04-01T12:54:01.394Z,27.30
2018-04-01T12:56:29.121Z,27.17
2018-04-01T12:58:57.796Z,24.67
2018-04-01T13:01:25.838Z,25.90
2018-04-01T13:03:53.600Z,29.13
2018-04-01T13:06:21.351Z,29.60
2018-04-01T13:08:49.341Z,29.23
2018-04-01T13:11:17.102Z,30.03
2018-04-01T13:13:44.880Z,29.53
2018-04-01T13:16:12.824Z,32.83
2018-04-01T13:18:40.589Z,29.97
2018-04-01T13:21:08.524Z,29.73
2018-04-01T13:23:36.326Z,29.10
2018-04-01T13:26:04.081Z,27.87
2018-04-01T13:28:31.820Z,30.30
2018-04-01T13:30:59.708Z,30.57
2018-04-01T13:33:27.418Z,29.67
2018-04-01T13:35:55.173Z,30.47
2018-04-01T13:38:23.024Z,28.97
2018-04-01T13:40:50.778Z,28.17
2018-04-01T13:43:18.678Z,153.30
2018-04-01T13:45:46.424Z,57.30
2018-04-01T13:48:14.177Z,25.53
2018-04-01T13:50:41.939Z,24.97
2018-04-01T13:53:09.690Z,25.20
2018-04-01T13:55:37.437Z,23.87
2018-04-01T13:58:05.440Z,25.40
2018-04-01T14:00:33.190Z,24.13
2018-04-01T14:03:00.969Z,24.33
2018-04-01T14:05:28.726Z,24.33
2018-04-01T14:07:56.472Z,22.07
2018-04-01T14:10:24.260Z,22.10
2018-04-01T14:12:52.000Z,21.17
2018-04-01T14:15:19.775Z,23.03
2018-04-01T14:17:48.320Z,35.60
2018-04-01T14:20:16.220Z,22.57
2018-04-01T14:22:44.268Z,26.87
2018-04-01T14:25:12.906Z,23.23
2018-04-01T14:27:40.708Z,21.53
2018-04-01T14:30:08.622Z,23.10
2018-04-01T14:32:36.549Z,22.17
2018-04-01T14:35:05.686Z,20.97
2018-04-01T14:37:33.458Z,21.87
2018-04-01T14:40:08.345Z,22.10
2018-04-01T14:42:36.077Z,22.30
2018-04-01T14:45:07.153Z,22.37
2018-04-01T14:47:34.949Z,22.33
2018-04-01T14:50:05.423Z,22.90
2018-04-01T14:52:33.172Z,21.63
2018-04-01T14:57:33.271Z,21.33
2018-04-01T15:02:33.393Z,22.10
2018-04-01T15:05:04.272Z,23.00
2018-04-01T15:07:32.067Z,22.80
2018-04-01T15:09:59.816Z,23.10
2018-04-01T15:12:30.886Z,56.73
2018-04-01T15:14:58.656Z,23.67
2018-04-01T15:17:26.664Z,24.73
2018-04-01T15:19:54.431Z,24.27
2018-04-01T15:22:22.171Z,24.33
2018-04-01T15:24:49.939Z,27.33
2018-04-01T15:27:17.675Z,28.90
2018-04-01T15:29:45.456Z,27.70
2018-04-01T15:32:13.202Z,26.70
2018-04-01T15:34:40.965Z,27.87
2018-04-01T15:37:09.788Z,27.50
2018-04-01T15:39:37.585Z,28.47
2018-04-01T15:42:05.733Z,30.43
2018-04-01T15:44:33.518Z,30.10
2018-04-01T15:47:01.263Z,30.33
2018-04-01T15:49:29.012Z,30.13
2018-04-01T15:51:56.762Z,31.17
2018-04-01T15:54:24.585Z,27.60
2018-04-01T15:56:52.360Z,25.10
2018-04-01T15:59:20.097Z,20.20
2018-04-01T16:01:47.860Z,19.30
2018-04-01T16:04:15.982Z,17.43
2018-04-01T16:06:43.829Z,16.53
2018-04-01T16:09:11.576Z,16.03
2018-04-01T16:11:39.370Z,17.13
2018-04-01T16:14:07.113Z,16.87
2018-04-01T16:16:35.037Z,15.20
2018-04-01T16:19:02.886Z,13.93
2018-04-01T16:21:30.649Z,14.17
2018-04-01T16:23:58.419Z,14.50
2018-04-01T16:26:26.165Z,14.73
2018-04-01T16:28:53.937Z,15.27
2018-04-01T16:31:21.708Z,14.93
2018-04-01T16:33:49.971Z,29.27
2018-04-01T16:36:17.735Z,16.00
2018-04-01T16:38:45.903Z,17.80
2018-04-01T16:41:13.646Z,17.53
2018-04-01T16:43:41.395Z,18.53
2018-04-01T16:46:09.201Z,18.40
2018-04-01T16:48:37.014Z,19.40
2018-04-01T16:51:04.753Z,18.77
2018-04-01T16:53:33.188Z,18.57
2018-04-01T16:56:01.221Z,20.30
2018-04-01T16:58:29.006Z,20.93
2018-04-01T17:00:56.762Z,20.97
2018-04-01T17:03:24.681Z,20.97
2018-04-01T17:05:52.445Z,21.37
2018-04-01T17:08:20.201Z,20.07
2018-04-01T17:10:48.584Z,26.50
2018-04-01T17:13:16.388Z,20.27
2018-04-01T17:15:44.487Z,21.30
2018-04-01T17:18:12.251Z,22.37
2018-04-01T17:20:39.993Z,23.73
2018-04-01T17:23:08.088Z,23.27
2018-04-01T17:25:36.473Z,23.37
2018-04-01T17:28:04.240Z,24.30
2018-04-01T17:30:31.996Z,23.67
2018-04-01T17:32:59.768Z,23.53
2018-04-01T17:35:27.520Z,24.87
2018-04-01T17:37:55.886Z,23.60
2018-04-01T17:40:23.741Z,22.53
2018-04-01T17:42:51.493Z,21.90
2018-04-01T17:45:19.248Z,21.17
2018-04-01T17:47:46.987Z,21.97
2018-04-01T17:50:14.744Z,22.97
2018-04-01T17:52:42.506Z,22.60
2018-04-01T17:55:10.271Z,22.77
2018-04-01T17:57:38.039Z,38.90
2018-04-01T18:00:05.823Z,57.77
2018-04-01T18:02:33.567Z,28.93
2018-04-01T18:05:04.912Z,28.27
2018-04-01T18:07:32.659Z,28.83
2018-04-01T18:10:00.475Z,29.47
2018-04-01T18:12:31.638Z,30.43
2018-04-01T18:14:59.412Z,29.13
2018-04-01T18:17:27.176Z,28.07
2018-04-01T18:19:54.942Z,25.90
2018-04-01T18:22:22.992Z,25.60
2018-04-01T18:24:50.737Z,24.27
2018-04-01T18:27:18.562Z,23.37
2018-04-01T18:29:46.335Z,24.27
2018-04-01T18:32:14.100Z,24.27
2018-04-01T18:34:41.870Z,25.17
2018-04-01T18:37:09.621Z,24.10
2018-04-01T18:39:37.399Z,24.47
2018-04-01T18:42:05.256Z,24.17
2018-04-01T18:44:33.024Z,24.07
2018-04-01T18:47:01.173Z,22.57
2018-04-01T18:49:28.966Z,25.63
2018-04-01T18:51:56.737Z,25.83
2018-04-01T18:54:24.494Z,25.30
2018-04-01T18:56:52.265Z,26.73
2018-04-01T18:59:20.021Z,29.17
2018-04-01T19:01:47.862Z,27.87
2018-04-01T19:04:15.659Z,31.67
2018-04-01T19:06:43.648Z,28.17
2018-04-01T19:09:11.430Z,28.83
2018-04-01T19:11:39.246Z,27.27
2018-04-01T19:14:07.028Z,28.60
2018-04-01T19:19:32.660Z,27.90
2018-04-01T19:22:00.964Z,30.33
2018-04-01T19:24:29.274Z,29.10
2018-04-01T19:26:57.550Z,29.57
2018-04-01T19:29:25.852Z,30.53
2018-04-01T19:31:54.170Z,32.13
2018-04-01T19:34:22.826Z,35.37
2018-04-01T19:36:51.130Z,35.57
2018-04-01T19:39:19.459Z,37.37
2018-04-01T19:41:47.741Z,38.97
2018-04-01T19:44:16.040Z,40.90
2018-04-01T19:46:44.324Z,44.80
2018-04-01T19:49:12.614Z,45.10
2018-04-01T19:51:40.889Z,46.20
2018-04-01T19:54:09.192Z,46.63
2018-04-01T19:56:38.219Z,47.30
2018-04-01T19:59:06.722Z,48.43
2018-04-01T20:01:34.988Z,48.50
2018-04-01T20:04:03.317Z,47.57
2018-04-01T20:06:31.624Z,50.07
2018-04-01T20:08:59.905Z,48.77
2018-04-01T20:11:28.253Z,48.83
2018-04-01T20:13:56.817Z,52.57
2018-04-01T20:16:25.209Z,51.90
2018-04-01T20:18:53.517Z,51.90
2018-04-01T20:21:21.855Z,51.63
2018-04-01T20:23:50.188Z,57.63
2018-04-01T20:26:18.486Z,55.83
2018-04-01T20:28:46.820Z,55.57
2018-04-01T20:31:15.098Z,54.77
2018-04-01T20:33:43.385Z,55.57
2018-04-01T20:36:12.381Z,53.93
2018-04-01T20:38:41.355Z,54.80
2018-04-01T20:41:09.700Z,55.20
2018-04-01T20:43:38.007Z,55.37
2018-04-01T20:46:06.329Z,51.63
2018-04-01T20:48:34.624Z,52.73
2018-04-01T20:51:03.150Z,53.27
2018-04-01T20:53:31.545Z,52.10
2018-04-01T20:55:59.856Z,52.83
2018-04-01T20:58:28.149Z,50.53
2018-04-01T21:00:56.440Z,52.30
2018-04-01T21:03:24.721Z,51.33
2018-04-01T21:05:53.062Z,50.20
2018-04-01T21:08:21.349Z,50.60
2018-04-01T21:10:49.682Z,53.07
2018-04-01T21:13:17.987Z,50.17
2018-04-01T21:15:46.280Z,50.67
2018-04-01T21:18:14.585Z,50.03
2018-04-01T21:20:42.868Z,53.03
2018-04-01T21:23:11.207Z,53.43
2018-04-01T21:25:39.498Z,51.73
2018-04-01T21:28:07.855Z,51.53
2018-04-01T21:30:36.155Z,51.83
2018-04-01T21:33:04.632Z,53.43
2018-04-01T21:35:32.906Z,54.13
2018-04-01T21:38:01.248Z,54.67
2018-04-01T21:40:29.819Z,51.87
2018-04-01T21:42:58.108Z,55.80
2018-04-01T21:45:26.386Z,56.13
2018-04-01T21:47:55.061Z,54.43
2018-04-01T21:50:23.331Z,54.33
2018-04-01T21:52:51.705Z,57.07
2018-04-01T21:55:19.985Z,55.60
2018-04-01T21:57:48.303Z,56.50
2018-04-01T22:00:16.602Z,60.03
2018-04-01T22:02:45.042Z,60.90
2018-04-01T22:05:14.159Z,64.57
2018-04-01T22:07:42.615Z,61.70
2018-04-01T22:10:11.167Z,81.60
2018-04-01T22:12:39.648Z,74.63
2018-04-01T22:15:07.944Z,75.17
2018-04-01T22:17:36.235Z,117.30
2018-04-01T22:20:06.307Z,93.03
2018-04-01T22:22:46.370Z,60.17
2018-04-01T22:25:14.759Z,58.00
2018-04-01T22:27:43.033Z,59.33
2018-04-01T22:30:11.339Z,62.63
2018-04-01T22:32:39.675Z,79.83
2018-04-01T22:35:07.982Z,75.10
2018-04-01T22:37:36.295Z,57.47
2018-04-01T22:40:06.438Z,59.43
2018-04-01T22:42:34.733Z,76.30
2018-04-01T22:45:07.569Z,59.23
2018-04-01T22:47:35.871Z,59.70
2018-04-01T22:50:06.201Z,60.10
2018-04-01T22:52:34.776Z,60.93
2018-04-01T22:55:08.770Z,63.30
2018-04-01T22:57:37.105Z,60.13
2018-04-01T23:00:08.426Z,62.07
2018-04-01T23:02:36.743Z,63.53
2018-04-01T23:05:06.900Z,60.93
2018-04-01T23:07:35.206Z,62.30
2018-04-01T23:10:07.304Z,61.50
2018-04-01T23:12:35.782Z,61.77
2018-04-01T23:15:07.305Z,62.77
2018-04-01T23:17:35.596Z,63.00
2018-04-01T23:20:06.265Z,65.00
2018-04-01T23:22:34.573Z,64.90
2018-04-01T23:25:06.609Z,64.33
2018-04-01T23:27:34.924Z,65.17
2018-04-01T23:30:06.351Z,63.10
2018-04-01T23:32:34.916Z,62.13
2018-04-01T23:35:06.617Z,63.00
2018-04-01T23:37:34.945Z,61.80
2018-04-01T23:40:07.048Z,63.73
2018-04-01T23:42:35.350Z,62.90
2018-04-01T23:45:06.717Z,61.67
2018-04-01T23:47:35.246Z,63.67
2018-04-01T23:50:06.969Z,62.90
2018-04-01T23:52:35.303Z,66.10
2018-04-01T23:55:07.228Z,67.37
2018-04-01T23:57:35.538Z,64.40
